createdAt,value
2023-05-23T00:00:01.651Z,13.25
2023-05-23T00:02:29.413Z,13.52
2023-05-23T00:04:58.734Z,13.57
2023-05-23T00:07:26.584Z,12.77
2023-05-23T00:09:53.954Z,12.98
2023-05-23T00:12:21.395Z,12.90
2023-05-23T00:14:48.885Z,12.77
2023-05-23T00:17:17.771Z,11.65
2023-05-23T00:19:45.912Z,10.98
2023-05-23T00:22:15.932Z,10.88
2023-05-23T00:24:43.302Z,10.20
2023-05-23T00:27:10.681Z,10.80
2023-05-23T00:29:38.013Z,11.68
2023-05-23T00:32:05.558Z,10.70
2023-05-23T00:34:33.139Z,11.15
2023-05-23T00:37:02.427Z,11.52
2023-05-23T00:39:29.907Z,11.23
2023-05-23T00:41:58.134Z,11.00
2023-05-23T00:44:25.498Z,11.10
2023-05-23T00:46:57.220Z,11.00
2023-05-23T00:49:27.225Z,11.38
2023-05-23T00:51:54.730Z,12.70
2023-05-23T00:54:25.730Z,12.65
2023-05-23T00:56:53.135Z,12.88
2023-05-23T00:59:23.415Z,14.05
2023-05-23T01:01:53.067Z,14.73
2023-05-23T01:09:36.814Z,13.57
2023-05-23T01:12:04.197Z,15.23
2023-05-23T01:14:52.660Z,14.55
2023-05-23T01:17:27.233Z,15.20
2023-05-23T01:20:05.306Z,15.18
2023-05-23T01:22:54.132Z,17.05
2023-05-23T01:25:24.653Z,15.02
2023-05-23T01:27:56.822Z,15.18
2023-05-23T01:30:25.710Z,17.05
2023-05-23T01:32:55.245Z,17.52
2023-05-23T01:43:12.577Z,20.42
2023-05-23T01:45:40.814Z,19.40
2023-05-23T01:48:09.557Z,20.75
2023-05-23T01:50:37.406Z,20.30
2023-05-23T01:53:05.703Z,20.80
2023-05-23T01:55:33.365Z,20.17
2023-05-23T01:58:01.249Z,20.17
2023-05-23T02:00:28.654Z,20.00
2023-05-23T02:02:56.170Z,19.40
2023-05-23T02:05:23.644Z,19.92
2023-05-23T02:07:50.989Z,19.73
2023-05-23T02:10:20.658Z,18.70
2023-05-23T02:12:48.035Z,16.88
2023-05-23T02:15:15.563Z,17.10
2023-05-23T02:17:43.331Z,17.17
2023-05-23T02:20:11.111Z,17.90
2023-05-23T02:22:39.335Z,18.52
2023-05-23T02:25:07.035Z,17.52
2023-05-23T02:27:34.412Z,16.42
2023-05-23T02:30:01.800Z,18.02
2023-05-23T02:32:30.529Z,18.30
2023-05-23T02:34:58.433Z,16.48
2023-05-23T02:37:25.820Z,17.00
2023-05-23T02:39:53.166Z,17.23
2023-05-23T02:42:20.555Z,17.50
2023-05-23T02:44:47.943Z,16.88
2023-05-23T02:47:15.338Z,18.05
2023-05-23T02:49:42.682Z,18.08
2023-05-23T02:52:10.109Z,17.02
2023-05-23T02:54:37.490Z,17.17
2023-05-23T02:57:05.293Z,17.15
2023-05-23T02:59:32.646Z,16.98
2023-05-23T03:02:00.058Z,18.45
2023-05-23T03:04:29.825Z,17.52
2023-05-23T03:06:59.860Z,16.25
2023-05-23T03:09:27.318Z,17.00
2023-05-23T03:11:54.771Z,17.52
2023-05-23T03:14:22.219Z,18.20
2023-05-23T03:16:49.727Z,18.50
2023-05-23T03:19:17.228Z,18.50
2023-05-23T03:21:45.789Z,17.90
2023-05-23T03:24:13.236Z,20.27
2023-05-23T03:26:41.199Z,20.98
2023-05-23T03:29:11.136Z,20.92
2023-05-23T03:31:38.648Z,26.63
2023-05-23T03:34:06.219Z,26.05
2023-05-23T03:36:34.400Z,26.70
2023-05-23T03:39:01.863Z,24.65
2023-05-23T03:41:29.346Z,23.75
2023-05-23T03:43:56.841Z,21.55
2023-05-23T03:46:24.304Z,21.35
2023-05-23T03:48:52.263Z,22.42
2023-05-23T03:51:19.755Z,22.65
2023-05-23T03:53:47.304Z,20.85
2023-05-23T03:56:14.773Z,20.48
2023-05-23T03:58:42.172Z,18.88
2023-05-23T04:01:09.671Z,17.88
2023-05-23T04:03:37.158Z,19.38
2023-05-23T04:06:04.776Z,19.58
2023-05-23T04:08:34.217Z,17.77
2023-05-23T04:11:02.264Z,17.95
2023-05-23T04:13:31.397Z,17.45
2023-05-23T04:16:01.690Z,18.40
2023-05-23T04:18:29.231Z,17.38
2023-05-23T04:20:56.815Z,17.88
2023-05-23T04:23:24.178Z,17.17
2023-05-23T04:25:51.834Z,16.23
2023-05-23T04:28:19.216Z,17.75
2023-05-23T04:30:46.594Z,17.13
2023-05-23T04:33:13.971Z,15.75
2023-05-23T04:35:41.668Z,15.38
2023-05-23T04:38:09.315Z,15.77
2023-05-23T04:40:36.867Z,15.98
2023-05-23T04:43:04.334Z,15.52
2023-05-23T04:45:32.078Z,14.95
2023-05-23T04:47:59.474Z,15.35
2023-05-23T04:50:28.885Z,15.40
2023-05-23T04:52:56.508Z,14.52
2023-05-23T04:55:24.330Z,15.35
2023-05-23T04:57:51.766Z,14.35
2023-05-23T05:00:20.625Z,14.30
2023-05-23T05:02:48.029Z,13.63
2023-05-23T05:05:15.576Z,13.52
2023-05-23T05:07:42.941Z,14.23
2023-05-23T05:10:17.202Z,14.18
2023-05-23T05:12:49.852Z,12.82
2023-05-23T05:15:17.779Z,13.63
2023-05-23T05:17:47.003Z,13.13
2023-05-23T05:20:15.632Z,13.13
2023-05-23T05:22:43.827Z,14.77
2023-05-23T05:25:12.111Z,14.30
2023-05-23T05:27:40.629Z,13.18
2023-05-23T05:30:09.169Z,13.38
2023-05-23T05:32:36.677Z,14.23
2023-05-23T05:35:04.852Z,13.75
2023-05-23T05:37:32.234Z,13.70
2023-05-23T05:40:03.443Z,14.30
2023-05-23T05:42:31.100Z,14.57
2023-05-23T05:44:58.476Z,15.00
2023-05-23T05:47:26.221Z,14.93
2023-05-23T05:49:53.672Z,14.45
2023-05-23T05:52:21.026Z,14.50
2023-05-23T05:54:48.420Z,13.95
2023-05-23T05:57:15.875Z,14.07
2023-05-23T05:59:43.232Z,13.13
2023-05-23T06:02:10.687Z,13.25
2023-05-23T06:04:38.124Z,12.55
2023-05-23T06:07:05.737Z,11.55
2023-05-23T06:09:33.153Z,11.80
2023-05-23T06:12:01.546Z,12.82
2023-05-23T06:14:28.961Z,12.75
2023-05-23T06:16:56.831Z,12.02
2023-05-23T06:19:24.273Z,11.60
2023-05-23T06:21:51.749Z,11.45
2023-05-23T06:24:19.151Z,11.40
2023-05-23T06:26:46.601Z,10.93
2023-05-23T06:29:14.381Z,9.50
2023-05-23T06:31:41.834Z,7.82
2023-05-23T06:34:09.219Z,9.07
2023-05-23T06:36:36.668Z,6.97
2023-05-23T06:39:04.089Z,7.82
2023-05-23T06:41:31.465Z,7.57
2023-05-23T06:43:58.884Z,7.38
2023-05-23T06:46:26.276Z,7.50
2023-05-23T06:48:59.503Z,6.95
2023-05-23T06:51:34.222Z,7.47
2023-05-23T06:54:01.664Z,7.50
2023-05-23T06:56:29.049Z,7.68
2023-05-23T06:58:56.435Z,8.18
2023-05-23T07:01:23.953Z,7.47
2023-05-23T07:03:51.395Z,7.35
2023-05-23T07:06:18.828Z,7.70
2023-05-23T07:08:47.027Z,7.28
2023-05-23T07:11:14.435Z,7.47
2023-05-23T07:13:41.878Z,6.57
2023-05-23T07:16:09.278Z,6.20
2023-05-23T07:18:38.640Z,6.47
2023-05-23T07:21:06.308Z,6.22
2023-05-23T07:23:37.095Z,6.45
2023-05-23T07:26:05.178Z,6.65
2023-05-23T07:28:32.576Z,5.88
2023-05-23T07:31:00.009Z,6.95
2023-05-23T07:33:27.382Z,6.47
2023-05-23T07:35:54.829Z,6.75
2023-05-23T07:38:22.243Z,6.93
2023-05-23T07:40:58.894Z,7.55
2023-05-23T07:43:30.419Z,7.22
2023-05-23T07:45:57.887Z,7.38
2023-05-23T07:48:27.326Z,7.05
2023-05-23T07:50:55.789Z,7.60
2023-05-23T07:56:03.120Z,7.68
2023-05-23T07:58:30.558Z,7.82
2023-05-23T08:00:58.296Z,7.47
2023-05-23T08:03:25.965Z,8.90
2023-05-23T08:05:53.321Z,8.32
2023-05-23T08:08:20.753Z,7.38
2023-05-23T08:10:48.185Z,8.30
2023-05-23T08:13:16.652Z,7.80
2023-05-23T08:15:44.057Z,7.68
2023-05-23T08:18:11.694Z,7.60
2023-05-23T08:20:39.322Z,7.28
2023-05-23T08:23:06.896Z,9.18
2023-05-23T08:25:34.379Z,8.85
2023-05-23T08:28:02.231Z,7.88
2023-05-23T08:30:29.973Z,8.00
2023-05-23T08:32:58.341Z,7.05
2023-05-23T08:35:25.891Z,7.63
2023-05-23T08:37:53.588Z,7.47
2023-05-23T08:40:23.038Z,6.55
2023-05-23T08:42:51.034Z,6.35
2023-05-23T08:45:19.532Z,6.00
2023-05-23T08:47:47.704Z,6.18
2023-05-23T08:50:17.230Z,5.55
2023-05-23T08:52:51.495Z,4.70
2023-05-23T08:55:19.369Z,5.82
2023-05-23T08:57:47.088Z,4.50
2023-05-23T09:00:15.288Z,4.40
2023-05-23T09:02:45.758Z,4.70
2023-05-23T09:05:13.945Z,4.18
2023-05-23T09:07:41.618Z,4.80
2023-05-23T09:10:10.270Z,4.38
2023-05-23T09:12:38.099Z,4.10
2023-05-23T09:15:06.502Z,4.40
2023-05-23T09:17:33.988Z,4.35
2023-05-23T09:20:01.698Z,3.60
2023-05-23T09:22:29.589Z,2.88
2023-05-23T09:24:57.463Z,3.13
2023-05-23T09:27:25.187Z,3.00
2023-05-23T09:29:52.577Z,3.13
2023-05-23T09:32:21.164Z,2.83
2023-05-23T09:34:51.553Z,3.13
2023-05-23T09:37:19.776Z,2.80
2023-05-23T09:39:49.126Z,3.65
2023-05-23T09:42:22.334Z,3.70
2023-05-23T09:44:50.180Z,3.63
2023-05-23T09:47:18.560Z,3.53
2023-05-23T09:49:46.778Z,3.20
2023-05-23T09:52:14.200Z,3.38
2023-05-23T09:54:41.824Z,3.08
2023-05-23T09:57:11.567Z,3.80
2023-05-23T09:59:42.992Z,3.00
2023-05-23T10:02:12.565Z,2.92
2023-05-23T10:04:43.747Z,2.75
2023-05-23T10:07:22.590Z,2.90
2023-05-23T10:09:57.520Z,3.00
2023-05-23T10:12:45.336Z,2.92
2023-05-23T10:15:14.545Z,2.70
2023-05-23T10:18:01.047Z,3.22
2023-05-23T10:20:32.177Z,3.17
2023-05-23T10:23:03.606Z,3.30
2023-05-23T10:25:31.268Z,3.15
2023-05-23T10:28:02.460Z,3.08
2023-05-23T10:30:31.483Z,3.20
2023-05-23T10:33:00.183Z,2.58
2023-05-23T10:35:40.113Z,2.70
2023-05-23T10:38:10.434Z,2.60
2023-05-23T10:40:41.220Z,3.38
2023-05-23T10:43:11.877Z,3.30
2023-05-23T10:45:42.985Z,2.30
2023-05-23T10:48:23.432Z,3.20
2023-05-23T10:51:05.120Z,3.22
2023-05-23T10:53:32.972Z,3.50
2023-05-23T10:56:00.433Z,3.45
2023-05-23T10:58:30.411Z,3.85
2023-05-23T11:01:00.635Z,3.50
2023-05-23T11:03:35.704Z,4.28
2023-05-23T11:06:04.167Z,3.88
2023-05-23T11:08:48.454Z,3.67
2023-05-23T11:11:16.389Z,3.80
2023-05-23T11:14:03.121Z,4.18
2023-05-23T11:16:41.171Z,4.03
2023-05-23T11:19:26.198Z,3.78
2023-05-23T11:21:54.952Z,2.67
2023-05-23T11:24:22.770Z,2.80
2023-05-23T11:26:55.344Z,2.70
2023-05-23T11:29:22.754Z,2.30
2023-05-23T11:31:50.193Z,3.13
2023-05-23T11:34:18.977Z,2.85
2023-05-23T11:36:46.659Z,3.20
2023-05-23T11:39:15.786Z,2.90
2023-05-23T11:41:44.152Z,3.30
2023-05-23T11:44:14.635Z,2.72
2023-05-23T11:46:42.045Z,3.65
2023-05-23T11:49:12.951Z,3.50
2023-05-23T11:51:40.336Z,3.33
2023-05-23T11:54:07.792Z,2.80
2023-05-23T11:56:39.980Z,3.38
2023-05-23T11:59:07.369Z,2.53
2023-05-23T12:01:38.387Z,2.50
2023-05-23T12:04:11.513Z,2.42
2023-05-23T12:06:40.957Z,2.42
2023-05-23T12:09:08.807Z,2.25
2023-05-23T12:11:36.534Z,2.53
2023-05-23T12:14:06.781Z,2.00
2023-05-23T12:16:34.605Z,2.10
2023-05-23T12:19:02.726Z,1.98
2023-05-23T12:21:46.726Z,2.35
2023-05-23T12:24:18.038Z,1.85
2023-05-23T12:26:48.491Z,2.30
2023-05-23T12:29:16.707Z,2.90
2023-05-23T12:31:44.258Z,2.78
2023-05-23T12:34:12.793Z,3.72
2023-05-23T12:36:48.653Z,4.82
2023-05-23T12:39:17.009Z,3.53
2023-05-23T12:41:46.064Z,4.15
2023-05-23T12:44:17.063Z,5.45
2023-05-23T12:46:44.502Z,5.75
2023-05-23T12:49:12.011Z,5.45
2023-05-23T12:51:39.469Z,5.75
2023-05-23T12:54:07.066Z,5.82
2023-05-23T12:56:34.508Z,6.22
2023-05-23T12:59:02.277Z,6.00
2023-05-23T13:01:29.836Z,6.57
2023-05-23T13:03:57.391Z,7.78
2023-05-23T13:06:24.846Z,6.53
2023-05-23T13:08:54.715Z,6.10
2023-05-23T13:11:22.773Z,5.85
2023-05-23T13:13:51.127Z,5.38
2023-05-23T13:16:19.227Z,5.95
2023-05-23T13:18:46.779Z,6.03
2023-05-23T13:21:14.240Z,7.28
2023-05-23T13:23:41.879Z,7.03
2023-05-23T13:26:09.277Z,6.25
2023-05-23T13:28:36.650Z,7.15
2023-05-23T13:31:04.081Z,7.40
2023-05-23T13:33:31.472Z,7.53
2023-05-23T13:35:58.928Z,8.10
2023-05-23T13:38:27.872Z,7.80
2023-05-23T13:40:55.636Z,8.75
2023-05-23T13:43:23.277Z,8.48
2023-05-23T13:45:50.648Z,7.90
2023-05-23T13:48:18.068Z,8.27
2023-05-23T13:50:46.098Z,7.82
2023-05-23T13:53:17.009Z,7.78
2023-05-23T13:55:45.504Z,8.02
2023-05-23T13:58:13.067Z,8.52
2023-05-23T14:00:41.506Z,8.15
2023-05-23T14:03:09.294Z,6.47
2023-05-23T14:05:36.890Z,7.53
2023-05-23T14:08:04.780Z,8.00
2023-05-23T14:10:33.677Z,8.02
2023-05-23T14:13:01.663Z,8.10
2023-05-23T14:15:29.068Z,7.75
2023-05-23T14:17:57.301Z,8.25
2023-05-23T14:20:24.768Z,7.82
2023-05-23T14:22:52.399Z,7.97
2023-05-23T14:25:20.004Z,7.68
2023-05-23T14:27:47.760Z,6.38
2023-05-23T14:30:15.265Z,6.55
2023-05-23T14:32:42.740Z,6.88
2023-05-23T14:35:11.226Z,6.20
2023-05-23T14:37:39.410Z,6.80
2023-05-23T14:40:07.338Z,6.68
2023-05-23T14:42:34.714Z,7.07
2023-05-23T14:45:02.100Z,7.82
2023-05-23T14:47:29.691Z,8.15
2023-05-23T14:49:57.030Z,7.18
2023-05-23T14:52:24.538Z,7.70
2023-05-23T14:54:52.051Z,7.18
2023-05-23T14:57:19.483Z,7.22
2023-05-23T14:59:46.916Z,8.75
2023-05-23T15:02:14.373Z,7.53
2023-05-23T15:04:42.024Z,7.38
2023-05-23T15:07:09.843Z,6.55
2023-05-23T15:09:37.759Z,6.32
2023-05-23T15:12:07.828Z,6.30
2023-05-23T15:14:35.230Z,5.65
2023-05-23T15:17:08.136Z,5.95
2023-05-23T15:19:39.701Z,5.60
2023-05-23T15:22:07.640Z,5.80
2023-05-23T15:24:36.852Z,5.97
2023-05-23T15:27:19.461Z,5.60
2023-05-23T15:29:47.825Z,5.95
2023-05-23T15:32:15.377Z,6.25
2023-05-23T15:34:42.939Z,5.80
2023-05-23T15:37:10.332Z,5.28
2023-05-23T15:39:37.694Z,5.20
2023-05-23T15:42:05.292Z,5.97
2023-05-23T15:44:32.718Z,5.65
2023-05-23T15:47:00.224Z,5.85
2023-05-23T15:49:27.648Z,5.88
2023-05-23T15:51:55.604Z,5.57
2023-05-23T15:54:23.263Z,5.90
2023-05-23T15:56:50.902Z,5.25
2023-05-23T15:59:18.254Z,4.78
2023-05-23T16:01:45.934Z,5.05
2023-05-23T16:04:13.474Z,5.10
2023-05-23T16:06:40.879Z,5.90
2023-05-23T16:09:08.296Z,5.13
2023-05-23T16:11:35.729Z,5.47
2023-05-23T16:14:03.164Z,4.55
2023-05-23T16:16:30.561Z,4.68
2023-05-23T16:18:57.981Z,4.93
2023-05-23T16:21:25.682Z,5.05
2023-05-23T16:23:53.654Z,4.82
2023-05-23T16:26:21.476Z,5.03
2023-05-23T16:28:48.890Z,4.70
2023-05-23T16:31:17.168Z,4.82
2023-05-23T16:33:45.024Z,4.55
2023-05-23T16:36:12.410Z,4.85
2023-05-23T16:38:40.221Z,4.57
2023-05-23T16:41:07.628Z,4.78
2023-05-23T16:43:35.285Z,4.25
2023-05-23T16:46:02.750Z,3.65
2023-05-23T16:48:30.151Z,4.57
2023-05-23T16:50:57.961Z,4.45
2023-05-23T16:53:25.489Z,4.32
2023-05-23T16:55:52.871Z,4.13
2023-05-23T16:58:21.307Z,4.22
2023-05-23T17:00:49.000Z,4.93
2023-05-23T17:03:16.607Z,5.57
2023-05-23T17:05:44.595Z,3.92
2023-05-23T17:08:12.199Z,4.47
2023-05-23T17:10:39.790Z,4.32
2023-05-23T17:13:07.479Z,3.95
2023-05-23T17:15:34.860Z,5.03
2023-05-23T17:18:02.260Z,3.47
2023-05-23T17:20:29.688Z,4.18
2023-05-23T17:22:57.142Z,3.42
2023-05-23T17:25:24.616Z,3.20
2023-05-23T17:27:52.026Z,4.15
2023-05-23T17:30:19.702Z,3.40
2023-05-23T17:32:47.776Z,3.45
2023-05-23T17:35:15.166Z,3.28
2023-05-23T17:37:45.202Z,3.67
2023-05-23T17:40:13.299Z,4.15
2023-05-23T17:42:41.337Z,4.60
2023-05-23T17:45:12.549Z,3.78
2023-05-23T17:47:39.964Z,4.72
2023-05-23T17:50:07.814Z,3.42
2023-05-23T17:52:36.021Z,4.40
2023-05-23T17:55:03.855Z,4.00
2023-05-23T17:57:31.589Z,3.40
2023-05-23T17:59:59.746Z,3.42
2023-05-23T18:02:27.993Z,4.38
2023-05-23T18:04:55.932Z,3.45
2023-05-23T18:07:23.391Z,4.25
2023-05-23T18:09:51.068Z,4.05
2023-05-23T18:12:18.461Z,3.70
2023-05-23T18:14:45.853Z,3.22
2023-05-23T18:17:13.436Z,4.00
2023-05-23T18:19:41.929Z,3.55
2023-05-23T18:22:09.754Z,4.90
2023-05-23T18:24:37.139Z,2.97
2023-05-23T18:27:04.878Z,3.50
2023-05-23T18:29:32.338Z,4.40
2023-05-23T18:31:59.699Z,3.45
2023-05-23T18:34:29.113Z,3.85
2023-05-23T18:36:56.878Z,3.42
2023-05-23T18:39:24.686Z,3.33
2023-05-23T18:41:52.093Z,4.38
2023-05-23T18:44:20.907Z,3.15
2023-05-23T18:46:48.667Z,3.75
2023-05-23T18:49:16.280Z,4.22
2023-05-23T18:51:43.948Z,2.80
2023-05-23T18:54:11.551Z,3.67
2023-05-23T18:56:38.898Z,3.58
2023-05-23T18:59:06.352Z,3.08
2023-05-23T19:01:33.883Z,3.40
2023-05-23T19:04:01.881Z,3.40
2023-05-23T19:06:29.340Z,3.60
2023-05-23T19:08:56.790Z,3.45
2023-05-23T19:11:24.288Z,3.28
2023-05-23T19:13:51.664Z,3.50
2023-05-23T19:16:20.691Z,3.50
2023-05-23T19:18:48.465Z,3.42
2023-05-23T19:21:16.238Z,3.33
2023-05-23T19:23:43.611Z,3.55
2023-05-23T19:26:11.230Z,3.90
2023-05-23T19:28:38.573Z,3.70
2023-05-23T19:31:07.891Z,3.65
2023-05-23T19:33:35.254Z,3.03
2023-05-23T19:36:02.657Z,3.60
2023-05-23T19:38:30.077Z,3.20
2023-05-23T19:40:57.530Z,3.75
2023-05-23T19:43:24.944Z,3.42
2023-05-23T19:45:52.362Z,3.00
2023-05-23T19:48:19.841Z,3.20
2023-05-23T19:50:47.710Z,3.58
2023-05-23T19:53:15.078Z,3.28
2023-05-23T19:55:42.995Z,3.25
2023-05-23T19:58:10.625Z,3.33
2023-05-23T20:00:38.240Z,3.72
2023-05-23T20:03:05.716Z,3.83
2023-05-23T20:05:33.175Z,3.85
2023-05-23T20:08:01.697Z,4.05
2023-05-23T20:10:29.143Z,3.83
2023-05-23T20:12:56.638Z,3.95
2023-05-23T20:15:35.355Z,3.38
2023-05-23T20:18:07.493Z,3.65
2023-05-23T20:20:35.015Z,2.95
2023-05-23T20:23:02.468Z,4.18
2023-05-23T20:25:29.844Z,3.40
2023-05-23T20:27:57.255Z,3.00
2023-05-23T20:30:25.140Z,3.33
2023-05-23T20:32:54.428Z,3.83
2023-05-23T20:35:22.782Z,3.30
2023-05-23T20:37:53.833Z,2.90
2023-05-23T20:40:22.943Z,3.25
2023-05-23T20:42:50.343Z,3.63
2023-05-23T20:45:17.799Z,3.55
2023-05-23T20:47:46.528Z,3.22
2023-05-23T20:50:14.941Z,3.30
2023-05-23T20:52:43.305Z,3.33
2023-05-23T20:55:11.090Z,2.85
2023-05-23T20:57:38.692Z,2.67
2023-05-23T21:00:13.388Z,3.22
2023-05-23T21:02:41.824Z,3.05
2023-05-23T21:05:09.910Z,2.58
2023-05-23T21:07:37.535Z,3.33
2023-05-23T21:10:05.030Z,2.65
2023-05-23T21:12:32.440Z,2.90
2023-05-23T21:14:59.852Z,2.90
2023-05-23T21:17:27.494Z,3.38
2023-05-23T21:19:55.020Z,3.60
2023-05-23T21:22:22.513Z,2.97
2023-05-23T21:24:50.659Z,3.10
2023-05-23T21:27:18.101Z,3.05
2023-05-23T21:29:47.144Z,3.33
2023-05-23T21:32:14.615Z,4.15
2023-05-23T21:34:42.037Z,3.05
2023-05-23T21:37:09.495Z,3.08
2023-05-23T21:39:50.500Z,2.80
2023-05-23T21:42:19.160Z,3.65
2023-05-23T21:44:46.823Z,3.30
2023-05-23T21:47:14.268Z,2.92
2023-05-23T21:49:41.749Z,3.70
2023-05-23T21:52:09.212Z,2.88
2023-05-23T21:54:36.602Z,3.25
2023-05-23T21:57:04.023Z,2.72
2023-05-23T21:59:31.367Z,3.08
2023-05-23T22:01:58.822Z,5.05
2023-05-23T22:04:26.368Z,2.67
2023-05-23T22:06:53.830Z,3.65
2023-05-23T22:09:21.232Z,3.85
2023-05-23T22:11:48.658Z,3.28
2023-05-23T22:14:16.099Z,3.22
2023-05-23T22:16:43.674Z,2.70
2023-05-23T22:19:12.623Z,3.47
2023-05-23T22:21:40.153Z,2.45
2023-05-23T22:24:07.664Z,2.90
2023-05-23T22:26:35.051Z,3.28
2023-05-23T22:29:02.483Z,3.00
2023-05-23T22:31:29.843Z,2.88
2023-05-23T22:33:57.309Z,2.80
2023-05-23T22:36:24.788Z,2.88
2023-05-23T22:38:52.176Z,2.95
2023-05-23T22:41:19.803Z,3.03
2023-05-23T22:43:47.291Z,2.58
2023-05-23T22:46:15.080Z,2.60
2023-05-23T22:48:43.027Z,2.80
2023-05-23T22:51:12.644Z,2.78
2023-05-23T22:53:40.082Z,3.00
2023-05-23T22:56:07.670Z,2.60
2023-05-23T22:58:35.193Z,2.60
2023-05-23T23:01:02.590Z,3.17
2023-05-23T23:03:30.059Z,3.22
2023-05-23T23:05:57.726Z,2.33
2023-05-23T23:08:25.134Z,2.60
2023-05-23T23:10:52.528Z,3.03
2023-05-23T23:13:19.913Z,3.10
2023-05-23T23:15:49.903Z,4.45
2023-05-23T23:18:19.015Z,2.42
2023-05-23T23:20:47.149Z,2.60
2023-05-23T23:23:14.938Z,2.97
2023-05-23T23:25:42.324Z,2.58
2023-05-23T23:28:09.732Z,3.88
2023-05-23T23:30:37.114Z,2.53
2023-05-23T23:33:04.509Z,2.55
2023-05-23T23:35:31.867Z,2.75
2023-05-23T23:37:59.268Z,2.45
2023-05-23T23:40:26.894Z,2.50
2023-05-23T23:42:54.273Z,2.90
2023-05-23T23:45:22.008Z,3.20
2023-05-23T23:47:49.475Z,2.58
2023-05-23T23:50:16.888Z,2.67
2023-05-23T23:52:44.257Z,3.38
2023-05-23T23:55:11.682Z,2.80
2023-05-23T23:57:39.106Z,2.75
